createdAt,value
2022-09-02T00:00:21.437Z,11.28
2022-09-02T00:02:55.121Z,9.83
2022-09-02T00:05:28.376Z,10.70
2022-09-02T00:08:01.378Z,8.65
2022-09-02T00:10:37.029Z,10.82
2022-09-02T00:13:11.955Z,11.25
2022-09-02T00:16:06.100Z,7.55
2022-09-02T00:18:39.833Z,7.17
2022-09-02T00:21:15.315Z,7.28
2022-09-02T00:23:48.242Z,7.12
2022-09-02T00:26:21.131Z,6.20
2022-09-02T00:28:55.926Z,7.90
2022-09-02T00:31:31.195Z,5.15
2022-09-02T00:34:06.101Z,7.53
2022-09-02T00:36:40.490Z,4.53
2022-09-02T00:39:13.613Z,8.73
2022-09-02T00:41:47.009Z,6.10
2022-09-02T00:44:20.926Z,6.78
2022-09-02T00:46:54.017Z,7.85
2022-09-02T00:49:31.246Z,6.00
2022-09-02T00:52:40.722Z,6.28
2022-09-02T00:55:23.592Z,8.03
2022-09-02T00:58:09.336Z,5.70
2022-09-02T01:00:45.211Z,8.58
2022-09-02T01:03:20.805Z,8.55
2022-09-02T01:05:54.279Z,7.72
2022-09-02T01:11:06.374Z,9.23
2022-09-02T01:13:42.918Z,6.70
2022-09-02T01:16:20.529Z,12.00
2022-09-02T01:18:56.635Z,8.88
2022-09-02T01:21:29.560Z,7.90
2022-09-02T01:24:02.448Z,11.57
2022-09-02T01:26:36.075Z,9.35
2022-09-02T01:29:09.006Z,9.30
2022-09-02T01:31:42.898Z,8.90
2022-09-02T01:36:50.063Z,8.58
2022-09-02T01:39:23.056Z,9.40
2022-09-02T01:41:57.761Z,7.35
2022-09-02T01:44:31.336Z,7.85
2022-09-02T01:47:25.273Z,6.53
2022-09-02T01:49:58.554Z,5.80
2022-09-02T01:52:34.404Z,11.25
2022-09-02T01:55:08.251Z,6.45
2022-09-02T01:57:42.384Z,7.42
2022-09-02T02:00:17.346Z,6.65
2022-09-02T02:02:50.413Z,7.35
2022-09-02T02:05:24.824Z,9.33
2022-09-02T02:07:59.769Z,8.33
2022-09-02T02:10:32.780Z,10.08
2022-09-02T02:13:06.007Z,11.45
2022-09-02T02:15:44.091Z,8.95
2022-09-02T02:18:17.581Z,8.45
2022-09-02T02:20:51.825Z,10.55
2022-09-02T02:23:25.197Z,10.43
2022-09-02T02:25:59.440Z,14.33
2022-09-02T02:28:32.802Z,9.85
2022-09-02T02:31:10.771Z,11.53
2022-09-02T02:33:43.964Z,11.53
2022-09-02T02:36:18.614Z,10.88
2022-09-02T02:38:51.820Z,12.37
2022-09-02T02:41:25.070Z,11.35
2022-09-02T02:43:58.129Z,10.45
2022-09-02T02:46:31.663Z,12.30
2022-09-02T02:49:06.124Z,11.85
2022-09-02T02:54:14.224Z,17.20
2022-09-02T02:56:48.071Z,22.62
2022-09-02T02:59:21.028Z,23.90
2022-09-02T03:01:54.265Z,31.42
2022-09-02T03:04:27.975Z,31.63
2022-09-02T03:07:01.299Z,33.90
2022-09-02T03:09:36.185Z,40.48
2022-09-02T03:12:11.593Z,37.23
2022-09-02T03:14:45.121Z,46.33
2022-09-02T03:17:20.576Z,44.90
2022-09-02T03:19:54.590Z,52.13
2022-09-02T03:22:28.897Z,47.38
2022-09-02T03:25:02.303Z,48.45
2022-09-02T03:27:36.192Z,61.73
2022-09-02T03:30:12.438Z,61.45
2022-09-02T03:32:47.204Z,59.38
2022-09-02T03:35:21.959Z,68.52
2022-09-02T03:37:57.419Z,67.97
2022-09-02T03:40:43.194Z,62.80
2022-09-02T03:43:16.721Z,64.03
2022-09-02T03:45:50.325Z,72.70
2022-09-02T03:48:23.541Z,81.50
2022-09-02T03:50:56.415Z,77.17
2022-09-02T03:53:29.725Z,81.32
2022-09-02T03:56:13.081Z,84.22
2022-09-02T03:58:48.087Z,89.25
2022-09-02T04:01:25.013Z,98.67
2022-09-02T04:04:00.307Z,103.45
2022-09-02T04:06:34.640Z,129.07
2022-09-02T04:09:08.002Z,119.17
2022-09-02T04:11:44.844Z,126.82
2022-09-02T04:14:18.565Z,149.00
2022-09-02T04:16:53.023Z,151.00
2022-09-02T04:19:26.809Z,144.53
2022-09-02T04:21:59.840Z,138.10
2022-09-02T04:24:33.919Z,139.45
2022-09-02T04:27:07.791Z,126.60
2022-09-02T04:29:41.781Z,116.85
2022-09-02T04:32:16.176Z,119.67
2022-09-02T04:34:49.943Z,111.52
2022-09-02T04:37:24.486Z,100.55
2022-09-02T04:39:58.616Z,103.95
2022-09-02T04:42:31.659Z,102.45
2022-09-02T04:45:05.558Z,108.15
2022-09-02T04:47:39.058Z,114.20
2022-09-02T04:50:12.830Z,102.30
2022-09-02T04:52:48.673Z,109.30
2022-09-02T04:55:23.206Z,106.12
2022-09-02T04:57:56.999Z,104.58
2022-09-02T05:00:30.384Z,106.70
2022-09-02T05:03:05.876Z,109.27
2022-09-02T05:05:40.789Z,102.35
2022-09-02T05:08:16.017Z,114.65
2022-09-02T05:10:51.287Z,120.37
2022-09-02T05:13:26.327Z,129.10
2022-09-02T05:15:59.594Z,124.10
2022-09-02T05:18:35.031Z,125.80
2022-09-02T05:21:08.694Z,117.97
2022-09-02T05:23:42.117Z,110.45
2022-09-02T05:26:15.234Z,117.00
2022-09-02T05:31:22.107Z,92.82
2022-09-02T05:33:56.155Z,73.83
2022-09-02T05:36:29.428Z,65.75
2022-09-02T05:39:02.678Z,69.12
2022-09-02T05:41:35.586Z,83.47
2022-09-02T05:44:09.205Z,68.35
2022-09-02T05:46:48.551Z,56.50
2022-09-02T05:49:22.246Z,58.42
2022-09-02T05:52:02.048Z,49.73
2022-09-02T05:54:43.553Z,49.40
2022-09-02T05:57:19.926Z,46.88
2022-09-02T06:00:00.738Z,50.85
2022-09-02T06:02:50.373Z,46.18
2022-09-02T06:05:25.149Z,46.08
2022-09-02T06:10:34.818Z,42.38
2022-09-02T06:13:10.309Z,37.88
2022-09-02T06:15:46.462Z,38.05
2022-09-02T06:18:21.405Z,40.78
2022-09-02T06:20:57.465Z,34.55
2022-09-02T06:23:31.956Z,34.23
2022-09-02T06:26:05.854Z,30.52
2022-09-02T06:28:39.263Z,26.97
2022-09-02T06:31:20.884Z,30.00
2022-09-02T06:33:57.263Z,29.25
2022-09-02T06:36:31.471Z,31.60
2022-09-02T06:39:06.311Z,38.75
2022-09-02T06:41:40.774Z,27.17
2022-09-02T06:44:16.297Z,23.45
2022-09-02T06:47:11.220Z,24.10
2022-09-02T06:49:45.460Z,30.62
2022-09-02T06:52:20.923Z,28.60
2022-09-02T06:54:55.341Z,25.23
2022-09-02T06:57:34.242Z,24.02
2022-09-02T07:00:09.307Z,26.68
2022-09-02T07:02:42.382Z,26.00
2022-09-02T07:05:18.896Z,27.67
2022-09-02T07:07:54.531Z,31.35
2022-09-02T07:10:28.129Z,26.15
2022-09-02T07:13:02.251Z,21.87
2022-09-02T07:15:36.019Z,33.63
2022-09-02T07:18:09.193Z,25.62
2022-09-02T07:20:43.936Z,22.58
2022-09-02T07:23:18.580Z,22.75
2022-09-02T07:25:51.654Z,18.62
2022-09-02T07:28:26.109Z,20.43
2022-09-02T07:31:00.253Z,20.50
2022-09-02T07:33:34.421Z,12.88
2022-09-02T07:36:10.925Z,12.65
2022-09-02T07:38:45.319Z,8.83
2022-09-02T07:41:19.131Z,8.70
2022-09-02T07:43:54.371Z,7.43
2022-09-02T07:46:27.622Z,8.65
2022-09-02T07:49:06.016Z,6.55
2022-09-02T07:51:44.153Z,5.10
2022-09-02T07:54:19.019Z,9.30
2022-09-02T07:56:52.451Z,6.12
2022-09-02T07:59:26.533Z,7.90
2022-09-02T08:02:00.789Z,4.05
2022-09-02T08:04:35.226Z,5.37
2022-09-02T08:07:09.924Z,4.50
2022-09-02T08:09:43.027Z,7.85
2022-09-02T08:12:18.907Z,4.20
2022-09-02T08:14:51.174Z,3.92
2022-09-02T08:17:24.416Z,4.65
2022-09-02T08:19:58.509Z,3.72
2022-09-02T08:22:36.433Z,4.25
2022-09-02T08:25:10.221Z,5.35
2022-09-02T08:27:46.724Z,4.80
2022-09-02T08:30:19.651Z,7.28
2022-09-02T08:32:53.938Z,4.60
2022-09-02T08:35:27.070Z,3.60
2022-09-02T08:38:03.720Z,7.55
2022-09-02T08:40:42.320Z,4.22
2022-09-02T08:43:32.451Z,3.15
2022-09-02T08:46:06.829Z,2.70
2022-09-02T08:48:53.247Z,2.75
2022-09-02T08:51:53.135Z,3.98
2022-09-02T08:54:55.960Z,5.72
2022-09-02T08:57:28.932Z,4.70
2022-09-02T09:00:03.398Z,2.80
2022-09-02T09:02:47.665Z,5.83
2022-09-02T09:06:04.861Z,3.33
2022-09-02T09:09:18.594Z,3.90
2022-09-02T09:15:03.294Z,3.20
2022-09-02T09:17:59.070Z,3.40
2022-09-02T09:20:38.945Z,4.35
2022-09-02T09:23:35.417Z,3.12
2022-09-02T09:26:17.921Z,3.65
2022-09-02T09:28:52.099Z,4.08
2022-09-02T09:31:30.056Z,5.78
2022-09-02T09:34:12.287Z,4.58
2022-09-02T09:36:49.437Z,7.80
2022-09-02T09:39:46.450Z,4.75
2022-09-02T09:42:22.588Z,9.25
2022-09-02T09:44:56.529Z,7.67
2022-09-02T09:47:29.876Z,5.00
2022-09-02T09:50:17.842Z,6.72
2022-09-02T09:52:52.148Z,7.37
2022-09-02T09:55:27.670Z,5.37
2022-09-02T09:58:05.664Z,5.85
2022-09-02T10:00:40.850Z,6.40
2022-09-02T10:03:23.971Z,6.00
2022-09-02T10:06:00.180Z,6.60
2022-09-02T10:08:33.452Z,5.12
2022-09-02T10:11:08.662Z,5.08
2022-09-02T10:13:42.529Z,5.08
2022-09-02T10:16:29.725Z,7.40
2022-09-02T10:19:26.892Z,7.53
2022-09-02T10:22:20.460Z,5.80
2022-09-02T10:25:01.549Z,5.87
2022-09-02T10:28:21.904Z,8.55
2022-09-02T10:31:25.061Z,6.53
2022-09-02T10:34:41.818Z,5.65
2022-09-02T10:37:26.089Z,7.92
2022-09-02T10:40:19.911Z,5.92
2022-09-02T10:43:15.427Z,5.28
2022-09-02T10:45:52.636Z,9.35
2022-09-02T10:48:57.093Z,5.78
2022-09-02T10:51:59.909Z,5.80
2022-09-02T10:55:14.645Z,9.30
2022-09-02T10:58:00.943Z,11.95
2022-09-02T11:00:35.978Z,8.58
2022-09-02T11:03:37.982Z,6.78
2022-09-02T11:06:58.850Z,7.58
2022-09-02T11:09:40.745Z,9.18
2022-09-02T11:12:34.740Z,9.10
2022-09-02T11:15:22.326Z,8.23
2022-09-02T11:18:31.633Z,7.58
2022-09-02T11:21:31.688Z,7.20
2022-09-02T11:24:15.754Z,10.53
2022-09-02T11:27:11.809Z,7.67
2022-09-02T11:30:06.874Z,9.83
2022-09-02T11:33:00.116Z,8.55
2022-09-02T11:35:39.562Z,12.65
2022-09-02T11:38:47.359Z,8.50
2022-09-02T11:42:00.098Z,8.83
2022-09-02T11:44:58.879Z,11.80
2022-09-02T11:47:55.459Z,10.85
2022-09-02T11:50:47.937Z,12.18
2022-09-02T11:53:32.482Z,12.60
2022-09-02T11:56:21.284Z,13.43
2022-09-02T11:58:54.648Z,9.53
2022-09-02T12:01:43.653Z,11.20
2022-09-02T12:07:12.335Z,13.32
2022-09-02T12:09:50.273Z,11.55
2022-09-02T12:12:44.014Z,10.50
2022-09-02T12:15:20.024Z,12.28
2022-09-02T12:17:59.458Z,13.03
2022-09-02T12:20:50.662Z,13.58
2022-09-02T12:23:54.175Z,11.12
2022-09-02T12:26:44.248Z,14.53
2022-09-02T12:29:27.592Z,13.43
2022-09-02T12:32:00.518Z,14.40
2022-09-02T12:34:47.219Z,13.40
2022-09-02T12:37:54.210Z,15.13
2022-09-02T12:40:33.061Z,15.68
2022-09-02T12:43:28.296Z,14.38
2022-09-02T12:46:09.494Z,14.43
2022-09-02T12:48:47.111Z,16.80
2022-09-02T12:52:00.139Z,14.98
2022-09-02T12:54:41.591Z,16.97
2022-09-02T12:57:16.328Z,11.68
2022-09-02T12:59:51.617Z,15.13
2022-09-02T13:03:11.987Z,14.75
2022-09-02T13:05:58.712Z,15.32
2022-09-02T13:08:54.846Z,14.28
2022-09-02T13:12:08.587Z,17.85
2022-09-02T13:15:36.727Z,14.38
2022-09-02T13:18:20.053Z,17.10
2022-09-02T13:21:18.548Z,16.90
2022-09-02T13:24:13.439Z,24.05
2022-09-02T13:27:24.206Z,16.70
2022-09-02T13:30:43.442Z,16.65
2022-09-02T13:33:16.811Z,17.15
2022-09-02T13:35:52.850Z,16.60
2022-09-02T13:38:29.286Z,17.60
2022-09-02T13:41:02.820Z,17.55
2022-09-02T13:43:37.183Z,16.55
2022-09-02T13:46:10.752Z,13.98
2022-09-02T13:48:44.950Z,16.45
2022-09-02T13:51:17.956Z,15.88
2022-09-02T13:54:22.079Z,18.80
2022-09-02T13:56:48.354Z,17.48
2022-09-02T13:59:36.565Z,20.05
2022-09-02T14:02:34.480Z,18.67
2022-09-02T14:05:25.400Z,19.57
2022-09-02T14:08:01.383Z,16.05
2022-09-02T14:10:34.634Z,14.80
2022-09-02T14:13:08.693Z,18.52
2022-09-02T14:15:42.068Z,12.68
2022-09-02T14:18:23.311Z,18.00
2022-09-02T14:21:18.255Z,15.35
2022-09-02T14:23:55.141Z,15.00
2022-09-02T14:26:40.654Z,17.75
2022-09-02T14:29:19.164Z,16.85
2022-09-02T14:32:31.820Z,17.20
2022-09-02T14:35:24.454Z,13.50
2022-09-02T14:38:01.242Z,9.83
2022-09-02T14:40:37.606Z,13.90
2022-09-02T14:43:16.342Z,12.60
2022-09-02T14:45:50.887Z,12.47
2022-09-02T14:48:27.860Z,12.80
2022-09-02T14:51:06.701Z,19.57
2022-09-02T14:53:40.183Z,17.77
2022-09-02T14:56:15.770Z,15.93
2022-09-02T14:58:50.221Z,15.58
2022-09-02T15:01:24.766Z,14.83
2022-09-02T15:03:58.163Z,11.28
2022-09-02T15:06:31.129Z,9.15
2022-09-02T15:09:04.316Z,10.65
2022-09-02T15:11:42.904Z,15.08
2022-09-02T15:14:15.772Z,12.68
2022-09-02T15:16:50.273Z,10.50
2022-09-02T15:19:23.272Z,12.13
2022-09-02T15:21:56.422Z,11.33
2022-09-02T15:24:29.613Z,9.20
2022-09-02T15:27:02.541Z,9.55
2022-09-02T15:29:35.769Z,10.95
2022-09-02T15:32:08.903Z,11.43
2022-09-02T15:34:42.923Z,13.43
2022-09-02T15:37:15.861Z,17.42
2022-09-02T15:39:49.788Z,11.20
2022-09-02T15:42:22.803Z,15.80
2022-09-02T15:44:57.992Z,14.43
2022-09-02T15:47:31.232Z,11.08
2022-09-02T15:50:05.305Z,18.48
2022-09-02T15:52:39.431Z,18.05
2022-09-02T15:55:12.585Z,15.30
2022-09-02T15:57:46.201Z,19.52
2022-09-02T16:00:19.951Z,12.30
2022-09-02T16:02:55.141Z,12.05
2022-09-02T16:05:28.235Z,12.82
2022-09-02T16:08:01.822Z,21.65
2022-09-02T16:10:38.508Z,13.38
2022-09-02T16:13:11.426Z,13.45
2022-09-02T16:15:45.489Z,12.55
2022-09-02T16:18:19.844Z,10.93
2022-09-02T16:20:52.719Z,18.48
2022-09-02T16:23:25.774Z,8.83
2022-09-02T16:26:24.371Z,14.03
2022-09-02T16:29:00.715Z,19.23
2022-09-02T16:31:35.653Z,19.57
2022-09-02T16:34:11.146Z,8.48
2022-09-02T16:36:48.158Z,6.80
2022-09-02T16:39:22.898Z,13.28
2022-09-02T16:41:55.733Z,14.83
2022-09-02T16:44:29.640Z,15.90
2022-09-02T16:47:02.598Z,17.05
2022-09-02T16:49:36.996Z,17.45
2022-09-02T16:52:10.029Z,25.77
2022-09-02T16:54:44.157Z,30.60
2022-09-02T16:57:17.335Z,29.10
2022-09-02T16:59:52.035Z,33.50
2022-09-02T17:02:25.581Z,30.25
2022-09-02T17:04:58.662Z,31.17
2022-09-02T17:07:31.998Z,30.37
2022-09-02T17:10:06.377Z,30.20
2022-09-02T17:12:43.039Z,33.28
2022-09-02T17:17:47.013Z,33.42
2022-09-02T17:20:20.092Z,34.38
2022-09-02T17:22:53.436Z,32.73
2022-09-02T17:25:26.493Z,36.20
2022-09-02T17:27:59.378Z,34.60
2022-09-02T17:30:33.253Z,30.97
2022-09-02T17:33:06.478Z,33.08
2022-09-02T17:35:39.497Z,35.20
2022-09-02T17:38:13.764Z,34.75
2022-09-02T17:41:05.035Z,34.55
2022-09-02T17:43:38.742Z,37.20
2022-09-02T17:49:15.880Z,37.90
2022-09-02T17:51:34.489Z,43.52
2022-09-02T17:54:10.420Z,35.73
2022-09-02T17:57:07.536Z,43.23
2022-09-02T18:00:10.962Z,41.88
2022-09-02T18:03:13.436Z,38.15
2022-09-02T18:06:15.322Z,37.60
2022-09-02T18:08:55.599Z,34.10
2022-09-02T18:11:29.879Z,33.98
2022-09-02T18:14:36.337Z,31.73
2022-09-02T18:17:40.230Z,40.17
2022-09-02T18:20:33.538Z,39.00
2022-09-02T18:23:39.839Z,44.10
2022-09-02T18:26:33.542Z,40.60
2022-09-02T18:29:46.363Z,39.30
2022-09-02T18:32:56.197Z,41.30
2022-09-02T18:36:12.566Z,36.53
2022-09-02T18:39:12.447Z,42.53
2022-09-02T18:42:25.301Z,46.88
2022-09-02T18:45:23.709Z,39.85
2022-09-02T18:48:04.900Z,40.55
2022-09-02T18:50:51.867Z,39.98
2022-09-02T18:53:31.959Z,40.80
2022-09-02T18:56:10.810Z,46.58
2022-09-02T18:58:53.895Z,46.63
2022-09-02T19:01:35.060Z,43.38
2022-09-02T19:04:08.362Z,43.83
2022-09-02T19:06:42.601Z,44.08
2022-09-02T19:09:17.389Z,50.30
2022-09-02T19:11:50.905Z,42.67
2022-09-02T19:14:30.277Z,48.85
2022-09-02T19:17:03.855Z,45.38
2022-09-02T19:19:38.270Z,43.60
2022-09-02T19:22:11.960Z,43.50
2022-09-02T19:24:47.951Z,42.77
2022-09-02T19:27:26.534Z,45.58
2022-09-02T19:30:16.133Z,48.28
2022-09-02T19:32:54.973Z,48.60
2022-09-02T19:35:30.571Z,44.20
2022-09-02T19:38:03.717Z,43.33
2022-09-02T19:40:38.623Z,44.23
2022-09-02T19:43:15.075Z,40.85
2022-09-02T19:45:50.958Z,44.05
2022-09-02T19:50:56.782Z,40.43
2022-09-02T19:53:33.130Z,39.98
2022-09-02T19:56:08.983Z,43.33
2022-09-02T19:58:41.895Z,43.73
2022-09-02T20:01:14.836Z,37.38
2022-09-02T20:03:49.002Z,40.73
2022-09-02T20:06:23.682Z,42.48
2022-09-02T20:08:57.029Z,39.55
2022-09-02T20:11:30.434Z,38.08
2022-09-02T20:14:04.594Z,40.33
2022-09-02T20:16:39.490Z,37.80
2022-09-02T20:19:16.119Z,45.30
2022-09-02T20:21:50.844Z,36.17
2022-09-02T20:24:27.686Z,39.98
2022-09-02T20:27:29.374Z,41.45
2022-09-02T20:30:12.301Z,38.30
2022-09-02T20:33:16.314Z,40.50
2022-09-02T20:36:20.442Z,35.80
2022-09-02T20:39:25.355Z,32.38
2022-09-02T20:42:24.900Z,37.00
2022-09-02T20:45:11.497Z,34.58
2022-09-02T20:48:10.627Z,35.25
2022-09-02T20:51:09.105Z,33.13
2022-09-02T20:54:06.031Z,28.50
2022-09-02T20:57:07.441Z,30.95
2022-09-02T21:00:05.086Z,31.55
2022-09-02T21:02:51.753Z,34.27
2022-09-02T21:05:36.298Z,31.00
2022-09-02T21:08:17.633Z,31.85
2022-09-02T21:10:55.230Z,30.70
2022-09-02T21:14:00.557Z,28.45
2022-09-02T21:16:42.649Z,29.05
2022-09-02T21:19:35.874Z,30.62
2022-09-02T21:22:18.839Z,23.85
2022-09-02T21:24:56.355Z,27.17
2022-09-02T21:27:42.291Z,23.20
2022-09-02T21:30:37.339Z,24.70
2022-09-02T21:33:13.129Z,24.20
2022-09-02T21:35:50.089Z,23.95
2022-09-02T21:38:39.977Z,22.95
2022-09-02T21:41:24.102Z,21.15
2022-09-02T21:44:07.428Z,24.50
2022-09-02T21:47:06.199Z,30.27
2022-09-02T21:50:22.147Z,22.87
2022-09-02T21:53:14.016Z,23.47
2022-09-02T21:56:09.073Z,24.85
2022-09-02T21:59:16.838Z,24.18
2022-09-02T22:02:24.832Z,23.47
2022-09-02T22:05:14.617Z,25.37
2022-09-02T22:08:01.579Z,25.08
2022-09-02T22:11:01.153Z,20.12
2022-09-02T22:13:34.780Z,20.32
2022-09-02T22:16:47.714Z,24.65
2022-09-02T22:19:22.081Z,23.65
2022-09-02T22:21:58.916Z,23.87
2022-09-02T22:24:33.958Z,23.87
2022-09-02T22:27:25.917Z,21.10
2022-09-02T22:30:14.803Z,24.05
2022-09-02T22:32:54.462Z,23.15
2022-09-02T22:35:45.370Z,21.35
2022-09-02T22:38:33.742Z,22.70
2022-09-02T22:41:31.362Z,20.80
2022-09-02T22:44:14.970Z,21.25
2022-09-02T22:47:25.305Z,18.92
2022-09-02T22:50:17.652Z,19.30
2022-09-02T22:52:52.261Z,18.23
2022-09-02T22:59:06.817Z,19.37
2022-09-02T23:02:20.550Z,17.48
2022-09-02T23:05:19.189Z,20.12
2022-09-02T23:07:52.781Z,21.12
2022-09-02T23:10:27.223Z,17.12
2022-09-02T23:13:04.456Z,17.82
2022-09-02T23:16:07.676Z,17.20
2022-09-02T23:18:55.864Z,16.85
2022-09-02T23:21:42.312Z,15.65
2022-09-02T23:24:27.372Z,15.55
2022-09-02T23:27:27.765Z,15.10
2022-09-02T23:30:02.010Z,16.15
2022-09-02T23:33:01.429Z,15.25
2022-09-02T23:35:53.461Z,21.00
2022-09-02T23:38:38.418Z,16.00
2022-09-02T23:41:12.875Z,16.82
2022-09-02T23:43:46.757Z,14.75
2022-09-02T23:46:25.670Z,14.83
2022-09-02T23:49:14.387Z,17.07
2022-09-02T23:52:12.720Z,17.23
2022-09-02T23:54:59.716Z,18.17
2022-09-02T23:57:56.137Z,15.48
